createdAt,value
2023-05-13T00:00:07.005Z,5.77
2023-05-13T00:02:38.412Z,5.03
2023-05-13T00:05:09.083Z,6.10
2023-05-13T00:07:38.905Z,6.07
2023-05-13T00:10:12.617Z,5.30
2023-05-13T00:12:42.375Z,4.90
2023-05-13T00:15:13.123Z,5.40
2023-05-13T00:17:42.944Z,6.20
2023-05-13T00:20:13.022Z,6.40
2023-05-13T00:22:42.754Z,5.93
2023-05-13T00:25:15.264Z,6.50
2023-05-13T00:27:45.036Z,6.53
2023-05-13T00:30:15.278Z,7.17
2023-05-13T00:32:45.071Z,6.80
2023-05-13T00:35:15.002Z,7.67
2023-05-13T00:37:45.164Z,6.70
2023-05-13T00:40:22.912Z,7.73
2023-05-13T00:42:53.765Z,7.70
2023-05-13T00:45:24.018Z,6.47
2023-05-13T00:47:54.566Z,7.50
2023-05-13T00:50:24.666Z,7.30
2023-05-13T00:52:54.713Z,5.23
2023-05-13T00:55:27.096Z,6.13
2023-05-13T00:57:56.855Z,6.50
2023-05-13T01:00:26.821Z,6.57
2023-05-13T01:03:01.994Z,6.20
2023-05-13T01:05:42.458Z,7.53
2023-05-13T01:08:23.009Z,7.20
2023-05-13T01:11:00.597Z,6.90
2023-05-13T01:13:37.124Z,6.70
2023-05-13T01:16:13.601Z,6.60
2023-05-13T01:18:47.925Z,6.50
2023-05-13T01:21:17.787Z,6.40
2023-05-13T01:23:50.150Z,6.17
2023-05-13T01:26:19.930Z,7.87
2023-05-13T01:28:50.212Z,6.03
2023-05-13T01:31:21.926Z,5.67
2023-05-13T01:33:53.002Z,6.50
2023-05-13T01:36:23.552Z,5.90
2023-05-13T01:38:58.529Z,6.83
2023-05-13T01:41:30.410Z,6.37
2023-05-13T01:44:00.529Z,6.50
2023-05-13T01:46:32.209Z,6.60
2023-05-13T01:49:02.215Z,6.80
2023-05-13T01:51:32.103Z,6.57
2023-05-13T01:54:04.482Z,5.93
2023-05-13T01:56:35.065Z,6.63
2023-05-13T01:59:05.772Z,7.07
2023-05-13T02:01:35.565Z,6.73
2023-05-13T02:04:05.393Z,6.20
2023-05-13T02:06:35.270Z,7.30
2023-05-13T02:09:08.384Z,6.30
2023-05-13T02:11:41.383Z,6.37
2023-05-13T02:14:11.229Z,6.07
2023-05-13T02:16:41.149Z,6.07
2023-05-13T02:19:11.048Z,5.50
2023-05-13T02:21:41.359Z,6.10
2023-05-13T02:24:13.984Z,5.60
2023-05-13T02:26:45.229Z,5.77
2023-05-13T02:29:15.132Z,5.83
2023-05-13T02:31:45.183Z,5.30
2023-05-13T02:34:15.032Z,4.90
2023-05-13T02:36:44.828Z,5.13
2023-05-13T02:39:17.297Z,5.07
2023-05-13T02:41:47.140Z,5.57
2023-05-13T02:44:17.128Z,6.03
2023-05-13T02:46:47.587Z,5.30
2023-05-13T02:49:18.380Z,5.80
2023-05-13T02:51:48.537Z,5.30
2023-05-13T02:54:22.311Z,6.30
2023-05-13T02:56:52.192Z,5.97
2023-05-13T02:59:21.940Z,5.87
2023-05-13T03:01:51.817Z,5.70
2023-05-13T03:04:21.814Z,6.70
2023-05-13T03:06:53.126Z,5.97
2023-05-13T03:09:25.590Z,6.03
2023-05-13T03:11:55.420Z,6.53
2023-05-13T03:14:25.175Z,5.37
2023-05-13T03:16:55.114Z,5.70
2023-05-13T03:19:24.849Z,5.57
2023-05-13T03:21:55.291Z,6.33
2023-05-13T03:24:27.784Z,6.50
2023-05-13T03:26:57.906Z,6.27
2023-05-13T03:29:27.820Z,6.00
2023-05-13T03:31:57.787Z,6.83
2023-05-13T03:34:28.162Z,6.30
2023-05-13T03:36:58.216Z,6.13
2023-05-13T03:39:31.829Z,7.07
2023-05-13T03:42:01.770Z,6.43
2023-05-13T03:44:31.623Z,6.80
2023-05-13T03:47:01.588Z,5.70
2023-05-13T03:49:32.057Z,6.47
2023-05-13T03:52:01.886Z,6.03
2023-05-13T03:54:34.380Z,6.40
2023-05-13T03:57:04.677Z,5.40
2023-05-13T03:59:34.481Z,5.47
2023-05-13T04:02:04.295Z,5.70
2023-05-13T04:04:34.112Z,6.60
2023-05-13T04:07:03.950Z,6.30
2023-05-13T04:09:36.656Z,6.17
2023-05-13T04:12:06.683Z,6.00
2023-05-13T04:14:36.965Z,6.40
2023-05-13T04:17:07.106Z,6.77
2023-05-13T04:19:37.025Z,6.10
2023-05-13T04:22:07.065Z,5.83
2023-05-13T04:24:39.458Z,6.33
2023-05-13T04:27:09.430Z,6.63
2023-05-13T04:29:39.371Z,6.87
2023-05-13T04:32:09.971Z,6.53
2023-05-13T04:34:40.793Z,7.60
2023-05-13T04:37:10.708Z,6.20
2023-05-13T04:39:43.214Z,6.10
2023-05-13T04:42:13.246Z,7.37
2023-05-13T04:44:43.223Z,6.33
2023-05-13T04:47:13.294Z,8.33
2023-05-13T04:49:43.286Z,6.90
2023-05-13T04:52:14.376Z,7.10
2023-05-13T04:54:46.718Z,7.07
2023-05-13T04:57:16.532Z,6.67
2023-05-13T04:59:46.316Z,6.57
2023-05-13T05:02:16.961Z,5.90
2023-05-13T05:04:49.460Z,6.30
2023-05-13T05:07:19.662Z,6.20
2023-05-13T05:09:52.674Z,5.83
2023-05-13T05:12:22.469Z,5.93
2023-05-13T05:14:52.222Z,5.90
2023-05-13T05:17:22.079Z,6.50
2023-05-13T05:19:51.915Z,5.73
2023-05-13T05:22:21.698Z,5.73
2023-05-13T05:24:54.052Z,6.20
2023-05-13T05:27:23.870Z,6.40
2023-05-13T05:29:53.598Z,6.23
2023-05-13T05:32:23.635Z,6.20
2023-05-13T05:34:53.497Z,6.80
2023-05-13T05:37:23.281Z,6.93
2023-05-13T05:39:55.670Z,6.60
2023-05-13T05:42:25.543Z,6.60
2023-05-13T05:44:55.820Z,6.53
2023-05-13T05:47:26.452Z,6.63
2023-05-13T05:49:56.228Z,5.53
2023-05-13T05:52:26.106Z,5.60
2023-05-13T05:54:58.445Z,6.90
2023-05-13T05:57:28.176Z,6.30
2023-05-13T05:59:57.987Z,6.30
2023-05-13T06:02:27.797Z,6.10
2023-05-13T06:04:57.644Z,5.90
2023-05-13T06:07:27.544Z,6.70
2023-05-13T06:10:00.042Z,5.40
2023-05-13T06:12:29.852Z,5.83
2023-05-13T06:14:59.610Z,5.10
2023-05-13T06:17:29.411Z,5.37
2023-05-13T06:20:01.315Z,6.03
2023-05-13T06:22:31.151Z,5.33
2023-05-13T06:25:03.528Z,5.53
2023-05-13T06:27:34.153Z,5.30
2023-05-13T06:30:04.128Z,5.53
2023-05-13T06:32:33.958Z,5.10
2023-05-13T06:35:03.901Z,5.37
2023-05-13T06:37:33.778Z,5.63
2023-05-13T06:40:06.713Z,4.37
2023-05-13T06:42:42.516Z,5.17
2023-05-13T06:45:26.053Z,4.60
2023-05-13T06:47:56.629Z,5.00
2023-05-13T06:50:26.486Z,4.87
2023-05-13T06:52:56.246Z,4.93
2023-05-13T06:55:28.600Z,5.37
2023-05-13T06:57:58.312Z,4.97
2023-05-13T07:00:28.253Z,5.33
2023-05-13T07:02:57.964Z,5.27
2023-05-13T07:05:27.865Z,5.10
2023-05-13T07:07:57.683Z,4.33
2023-05-13T07:10:30.062Z,4.83
2023-05-13T07:12:59.868Z,4.53
2023-05-13T07:15:29.632Z,4.70
2023-05-13T07:17:59.465Z,4.90
2023-05-13T07:20:29.261Z,4.47
2023-05-13T07:22:59.028Z,4.57
2023-05-13T07:25:31.334Z,4.80
2023-05-13T07:28:01.181Z,5.13
2023-05-13T07:30:31.021Z,5.17
2023-05-13T07:33:00.868Z,5.40
2023-05-13T07:35:30.649Z,4.93
2023-05-13T07:38:00.358Z,5.33
2023-05-13T07:40:32.694Z,4.90
2023-05-13T07:43:02.428Z,5.37
2023-05-13T07:45:32.321Z,5.57
2023-05-13T07:48:02.106Z,5.50
2023-05-13T07:50:31.839Z,5.17
2023-05-13T07:53:01.565Z,5.40
2023-05-13T07:55:33.866Z,5.00
2023-05-13T07:58:03.618Z,5.47
2023-05-13T08:00:33.638Z,5.23
2023-05-13T08:03:04.274Z,6.77
2023-05-13T08:05:34.192Z,5.87
2023-05-13T08:08:04.119Z,6.40
2023-05-13T08:10:36.466Z,6.07
2023-05-13T08:13:06.209Z,5.77
2023-05-13T08:15:37.207Z,4.80
2023-05-13T08:18:07.085Z,5.80
2023-05-13T08:20:36.948Z,5.93
2023-05-13T08:23:07.004Z,5.50
2023-05-13T08:25:39.337Z,6.03
2023-05-13T08:28:09.111Z,4.93
2023-05-13T08:30:40.910Z,5.73
2023-05-13T08:33:11.418Z,5.13
2023-05-13T08:35:42.918Z,5.87
2023-05-13T08:38:13.975Z,5.97
2023-05-13T08:40:47.801Z,5.70
2023-05-13T08:43:18.978Z,6.17
2023-05-13T08:45:50.852Z,5.20
2023-05-13T08:48:22.617Z,6.70
2023-05-13T08:50:52.804Z,5.50
2023-05-13T08:53:24.134Z,5.90
2023-05-13T08:55:57.415Z,5.60
2023-05-13T08:58:27.935Z,6.27
2023-05-13T09:00:58.842Z,5.33
2023-05-13T09:03:30.570Z,5.87
2023-05-13T09:06:03.437Z,4.90
2023-05-13T09:08:33.185Z,4.60
2023-05-13T09:11:05.827Z,5.40
2023-05-13T09:13:35.558Z,5.00
2023-05-13T09:16:06.160Z,4.80
2023-05-13T09:18:36.877Z,5.10
2023-05-13T09:21:27.778Z,5.13
2023-05-13T09:24:19.084Z,4.50
2023-05-13T09:26:52.856Z,5.23
2023-05-13T09:29:25.360Z,5.07
2023-05-13T09:31:56.771Z,5.00
2023-05-13T09:34:31.413Z,5.17
2023-05-13T09:37:04.304Z,5.53
2023-05-13T09:39:35.902Z,4.20
2023-05-13T09:42:08.914Z,4.57
2023-05-13T09:44:39.057Z,5.13
2023-05-13T09:47:09.066Z,5.00
2023-05-13T09:49:38.951Z,4.40
2023-05-13T09:52:11.744Z,5.20
2023-05-13T09:54:42.000Z,5.13
2023-05-13T09:57:15.984Z,5.30
2023-05-13T09:59:45.740Z,4.37
2023-05-13T10:02:18.187Z,4.27
2023-05-13T10:04:48.336Z,4.50
2023-05-13T10:07:18.099Z,4.40
2023-05-13T10:09:49.263Z,4.40
2023-05-13T10:12:23.685Z,5.10
2023-05-13T10:14:54.878Z,4.90
2023-05-13T10:17:27.893Z,3.93
2023-05-13T10:20:01.025Z,3.67
2023-05-13T10:27:02.801Z,4.50
2023-05-13T10:30:03.898Z,4.80
2023-05-13T10:32:35.225Z,4.03
2023-05-13T10:35:10.352Z,5.07
2023-05-13T10:38:09.309Z,4.43
2023-05-13T10:41:19.670Z,5.70
2023-05-13T10:44:09.978Z,4.07
2023-05-13T10:46:45.721Z,4.50
2023-05-13T10:49:18.252Z,4.30
2023-05-13T10:51:49.584Z,4.80
2023-05-13T10:54:24.961Z,6.00
2023-05-13T10:57:00.192Z,4.60
2023-05-13T10:59:30.863Z,5.30
2023-05-13T11:02:05.511Z,4.30
2023-05-13T11:04:35.322Z,3.80
2023-05-13T11:07:18.416Z,4.50
2023-05-13T11:09:53.570Z,4.33
2023-05-13T11:12:23.458Z,3.88
2023-05-13T11:14:53.270Z,3.80
2023-05-13T11:17:26.202Z,4.30
2023-05-13T11:19:56.180Z,4.63
2023-05-13T11:22:27.660Z,4.97
2023-05-13T11:25:08.454Z,4.83
2023-05-13T11:27:41.811Z,4.50
2023-05-13T11:30:25.012Z,5.70
2023-05-13T11:33:02.932Z,4.33
2023-05-13T11:35:34.324Z,3.80
2023-05-13T11:38:05.906Z,4.17
2023-05-13T11:40:38.446Z,3.33
2023-05-13T11:43:09.077Z,3.47
2023-05-13T11:45:42.448Z,4.00
2023-05-13T11:48:26.465Z,3.67
2023-05-13T11:51:00.393Z,4.00
2023-05-13T11:53:30.286Z,4.43
2023-05-13T11:56:13.105Z,3.53
2023-05-13T11:58:42.899Z,4.10
2023-05-13T12:01:17.670Z,4.13
2023-05-13T12:03:50.426Z,4.67
2023-05-13T12:06:21.271Z,3.30
2023-05-13T12:08:51.015Z,3.80
2023-05-13T12:11:20.898Z,3.50
2023-05-13T12:13:50.920Z,3.27
2023-05-13T12:16:20.779Z,3.67
2023-05-13T12:19:02.701Z,4.40
2023-05-13T12:21:35.347Z,3.87
2023-05-13T12:24:05.103Z,3.97
2023-05-13T12:26:34.850Z,4.60
2023-05-13T12:29:05.010Z,4.00
2023-05-13T12:31:35.089Z,3.43
2023-05-13T12:34:07.546Z,3.30
2023-05-13T12:36:40.716Z,3.43
2023-05-13T12:39:12.143Z,3.40
2023-05-13T12:41:43.969Z,3.90
2023-05-13T12:44:17.267Z,8.37
2023-05-13T12:46:53.021Z,4.60
2023-05-13T12:49:25.484Z,7.10
2023-05-13T12:51:55.925Z,4.30
2023-05-13T12:54:25.815Z,3.47
2023-05-13T12:56:55.597Z,3.20
2023-05-13T12:59:26.758Z,3.70
2023-05-13T13:01:57.646Z,3.37
2023-05-13T13:04:30.919Z,4.00
2023-05-13T13:07:00.752Z,3.43
2023-05-13T13:09:30.504Z,2.83
2023-05-13T13:12:00.265Z,3.30
2023-05-13T13:14:29.993Z,3.67
2023-05-13T13:16:59.780Z,3.80
2023-05-13T13:19:32.117Z,3.60
2023-05-13T13:22:01.903Z,3.63
2023-05-13T13:24:31.699Z,3.20
2023-05-13T13:27:01.483Z,3.10
2023-05-13T13:29:31.236Z,3.13
2023-05-13T13:32:01.070Z,3.40
2023-05-13T13:34:33.411Z,7.07
2023-05-13T13:37:03.179Z,3.80
2023-05-13T13:39:33.594Z,3.00
2023-05-13T13:42:04.792Z,4.17
2023-05-13T13:44:38.539Z,4.40
2023-05-13T13:47:08.329Z,3.47
2023-05-13T13:49:40.665Z,3.60
2023-05-13T13:52:11.299Z,3.50
2023-05-13T13:54:41.010Z,3.57
2023-05-13T13:57:10.780Z,3.33
2023-05-13T13:59:40.495Z,2.90
2023-05-13T14:02:10.296Z,3.23
2023-05-13T14:04:42.773Z,3.40
2023-05-13T14:07:12.695Z,2.87
2023-05-13T14:09:42.429Z,2.70
2023-05-13T14:12:12.314Z,3.20
2023-05-13T14:14:42.048Z,3.50
2023-05-13T14:17:13.171Z,4.40
2023-05-13T14:19:46.952Z,2.60
2023-05-13T14:22:16.702Z,3.10
2023-05-13T14:24:46.498Z,2.83
2023-05-13T14:27:16.320Z,3.10
2023-05-13T14:29:46.094Z,3.40
2023-05-13T14:32:16.059Z,3.30
2023-05-13T14:34:48.899Z,3.33
2023-05-13T14:37:18.698Z,2.93
2023-05-13T14:39:50.077Z,3.17
2023-05-13T14:42:20.212Z,3.70
2023-05-13T14:44:49.978Z,3.50
2023-05-13T14:47:19.751Z,3.30
2023-05-13T14:49:52.068Z,3.10
2023-05-13T14:52:21.901Z,2.50
2023-05-13T14:54:52.244Z,6.27
2023-05-13T14:57:22.179Z,4.30
2023-05-13T14:59:51.899Z,5.03
2023-05-13T15:02:21.670Z,4.40
2023-05-13T15:04:54.162Z,4.95
2023-05-13T15:07:24.086Z,3.67
2023-05-13T15:09:53.914Z,3.40
2023-05-13T15:12:23.748Z,2.87
2023-05-13T15:14:56.620Z,2.80
2023-05-13T15:17:26.546Z,2.60
2023-05-13T15:19:58.911Z,2.87
2023-05-13T15:22:28.694Z,2.50
2023-05-13T15:24:58.427Z,4.47
2023-05-13T15:27:29.398Z,2.80
2023-05-13T15:29:59.864Z,2.90
2023-05-13T15:32:30.224Z,2.27
2023-05-13T15:35:02.693Z,2.50
2023-05-13T15:37:32.506Z,2.50
2023-05-13T15:40:02.306Z,2.23
2023-05-13T15:42:32.037Z,2.57
2023-05-13T15:45:02.035Z,2.60
2023-05-13T15:47:32.052Z,2.13
2023-05-13T15:50:04.774Z,2.87
2023-05-13T15:52:34.647Z,2.30
2023-05-13T15:55:04.376Z,2.40
2023-05-13T15:57:34.120Z,2.10
2023-05-13T16:00:04.016Z,2.30
2023-05-13T16:02:39.435Z,2.10
2023-05-13T16:05:12.313Z,2.47
2023-05-13T16:07:42.025Z,2.30
2023-05-13T16:10:12.582Z,2.60
2023-05-13T16:12:43.294Z,2.33
2023-05-13T16:15:14.118Z,2.00
2023-05-13T16:17:43.932Z,2.27
2023-05-13T16:20:16.511Z,2.73
2023-05-13T16:22:46.381Z,2.17
2023-05-13T16:25:16.424Z,2.50
2023-05-13T16:27:46.212Z,2.30
2023-05-13T16:30:16.404Z,2.30
2023-05-13T16:32:49.027Z,2.27
2023-05-13T16:35:21.767Z,2.37
2023-05-13T16:37:51.798Z,2.50
2023-05-13T16:40:21.675Z,2.10
2023-05-13T16:42:51.646Z,2.17
2023-05-13T16:45:21.880Z,2.17
2023-05-13T16:47:51.852Z,2.40
2023-05-13T16:50:24.912Z,2.40
2023-05-13T16:52:54.935Z,2.70
2023-05-13T16:55:26.169Z,2.50
2023-05-13T16:57:56.318Z,2.50
2023-05-13T17:00:26.350Z,2.17
2023-05-13T17:02:56.172Z,1.87
2023-05-13T17:05:30.149Z,2.00
2023-05-13T17:07:59.852Z,2.00
2023-05-13T17:10:29.652Z,2.33
2023-05-13T17:12:59.415Z,2.17
2023-05-13T17:15:29.274Z,2.33
2023-05-13T17:17:59.148Z,1.70
2023-05-13T17:20:31.514Z,2.60
2023-05-13T17:23:01.305Z,1.87
2023-05-13T17:25:31.181Z,2.10
2023-05-13T17:28:01.050Z,2.37
2023-05-13T17:30:30.826Z,1.80
2023-05-13T17:33:00.578Z,2.47
2023-05-13T17:35:32.959Z,2.70
2023-05-13T17:38:02.680Z,2.63
2023-05-13T17:40:32.622Z,2.50
2023-05-13T17:43:03.717Z,2.40
2023-05-13T17:45:35.793Z,2.20
2023-05-13T17:48:05.835Z,2.30
2023-05-13T17:50:38.502Z,2.07
2023-05-13T17:53:09.634Z,2.17
2023-05-13T17:55:39.598Z,2.80
2023-05-13T17:58:09.693Z,2.30
2023-05-13T18:00:39.560Z,2.17
2023-05-13T18:03:09.692Z,1.93
2023-05-13T18:05:42.546Z,2.10
2023-05-13T18:08:12.719Z,2.60
2023-05-13T18:10:42.816Z,2.50
2023-05-13T18:13:12.917Z,2.90
2023-05-13T18:15:43.196Z,2.53
2023-05-13T18:18:13.667Z,2.20
2023-05-13T18:20:46.140Z,2.63
2023-05-13T18:23:16.487Z,2.13
2023-05-13T18:25:54.942Z,2.70
2023-05-13T18:28:25.605Z,2.33
2023-05-13T18:30:55.332Z,2.77
2023-05-13T18:33:25.102Z,2.63
2023-05-13T18:35:57.422Z,2.47
2023-05-13T18:38:27.176Z,2.27
2023-05-13T18:40:57.005Z,2.40
2023-05-13T18:43:26.907Z,2.80
2023-05-13T18:45:57.989Z,2.80
2023-05-13T18:48:27.924Z,2.23
2023-05-13T18:51:00.334Z,2.87
2023-05-13T18:53:30.183Z,2.43
2023-05-13T18:56:00.167Z,3.00
2023-05-13T18:58:29.929Z,2.53
2023-05-13T19:00:59.713Z,2.63
2023-05-13T19:03:29.648Z,2.73
2023-05-13T19:06:02.050Z,2.63
2023-05-13T19:08:31.809Z,2.67
2023-05-13T19:11:01.563Z,3.00
2023-05-13T19:13:39.815Z,2.50
2023-05-13T19:16:17.204Z,3.40
2023-05-13T19:18:47.050Z,3.03
2023-05-13T19:21:19.859Z,4.00
2023-05-13T19:23:49.585Z,4.47
2023-05-13T19:26:19.500Z,3.70
2023-05-13T19:28:49.667Z,3.17
2023-05-13T19:31:19.576Z,3.30
2023-05-13T19:33:49.365Z,3.13
2023-05-13T19:36:23.880Z,3.17
2023-05-13T19:38:53.625Z,3.40
2023-05-13T19:41:23.351Z,2.70
2023-05-13T19:43:53.227Z,3.10
2023-05-13T19:46:23.150Z,3.73
2023-05-13T19:48:52.928Z,2.87
2023-05-13T19:51:26.888Z,3.50
2023-05-13T19:53:56.899Z,3.50
2023-05-13T19:56:26.727Z,3.20
2023-05-13T19:58:56.458Z,3.37
2023-05-13T20:01:27.046Z,3.97
2023-05-13T20:03:57.451Z,4.73
2023-05-13T20:06:29.850Z,6.33
2023-05-13T20:09:00.927Z,5.60
2023-05-13T20:11:31.502Z,4.40
2023-05-13T20:14:01.731Z,5.57
2023-05-13T20:16:31.520Z,4.30
2023-05-13T20:19:03.194Z,3.87
2023-05-13T20:21:35.641Z,5.33
2023-05-13T20:24:05.342Z,5.47
2023-05-13T20:26:35.871Z,4.03
2023-05-13T20:29:05.730Z,4.07
2023-05-13T20:31:35.585Z,4.30
2023-05-13T20:34:06.269Z,4.03
2023-05-13T20:36:38.928Z,4.50
2023-05-13T20:39:08.708Z,4.10
2023-05-13T20:41:38.469Z,3.93
2023-05-13T20:44:08.249Z,3.90
2023-05-13T20:46:38.029Z,4.10
2023-05-13T20:49:08.107Z,3.37
2023-05-13T20:51:41.253Z,3.80
2023-05-13T20:54:11.522Z,3.50
2023-05-13T20:56:41.285Z,3.73
2023-05-13T20:59:11.502Z,3.93
2023-05-13T21:01:41.989Z,4.10
2023-05-13T21:04:11.857Z,4.33
2023-05-13T21:06:44.284Z,5.03
2023-05-13T21:09:14.085Z,4.90
2023-05-13T21:11:43.821Z,3.97
2023-05-13T21:14:13.572Z,4.60
2023-05-13T21:16:43.546Z,4.70
2023-05-13T21:19:21.344Z,5.47
2023-05-13T21:21:54.221Z,5.90
2023-05-13T21:24:23.998Z,5.67
2023-05-13T21:26:53.987Z,5.97
2023-05-13T21:29:23.765Z,6.80
2023-05-13T21:31:54.661Z,5.80
2023-05-13T21:34:24.534Z,8.70
2023-05-13T21:36:56.879Z,12.13
2023-05-13T21:39:26.678Z,8.43
2023-05-13T21:41:56.466Z,7.60
2023-05-13T21:44:26.891Z,8.00
2023-05-13T21:46:56.636Z,6.30
2023-05-13T21:49:26.943Z,6.10
2023-05-13T21:51:59.328Z,6.20
2023-05-13T21:54:29.196Z,5.17
2023-05-13T21:56:58.990Z,4.40
2023-05-13T21:59:28.843Z,5.40
2023-05-13T22:01:58.606Z,5.10
2023-05-13T22:04:28.377Z,4.87
2023-05-13T22:07:00.719Z,5.13
2023-05-13T22:09:30.537Z,4.50
2023-05-13T22:12:00.358Z,5.53
2023-05-13T22:14:30.098Z,5.90
2023-05-13T22:17:08.999Z,5.37
2023-05-13T22:19:39.705Z,6.00
2023-05-13T22:22:12.103Z,6.13
2023-05-13T22:24:41.840Z,6.83
2023-05-13T22:27:11.827Z,5.53
2023-05-13T22:29:41.590Z,5.90
2023-05-13T22:32:11.429Z,6.20
2023-05-13T22:34:41.257Z,6.00
2023-05-13T22:37:13.571Z,5.63
2023-05-13T22:39:43.299Z,5.17
2023-05-13T22:42:13.059Z,5.97
2023-05-13T22:44:42.844Z,5.40
2023-05-13T22:47:12.650Z,6.33
2023-05-13T22:49:42.450Z,6.00
2023-05-13T22:52:14.858Z,5.80
2023-05-13T22:54:44.682Z,5.23
2023-05-13T22:57:14.442Z,5.77
2023-05-13T22:59:44.199Z,6.63
2023-05-13T23:02:13.981Z,5.97
2023-05-13T23:04:43.776Z,6.07
2023-05-13T23:07:16.120Z,5.47
2023-05-13T23:09:46.043Z,5.60
2023-05-13T23:12:16.024Z,6.10
2023-05-13T23:14:45.941Z,5.73
2023-05-13T23:17:16.061Z,5.80
2023-05-13T23:19:45.830Z,5.87
2023-05-13T23:22:18.219Z,6.33
2023-05-13T23:24:47.997Z,6.10
2023-05-13T23:27:19.311Z,5.73
2023-05-13T23:29:49.087Z,5.93
2023-05-13T23:32:19.274Z,7.63
2023-05-13T23:34:49.055Z,7.13
2023-05-13T23:37:22.331Z,6.87
2023-05-13T23:39:52.127Z,8.10
2023-05-13T23:42:21.909Z,6.80
2023-05-13T23:44:51.664Z,7.80
2023-05-13T23:47:21.848Z,7.50
2023-05-13T23:49:51.599Z,7.00
2023-05-13T23:52:24.137Z,7.37
2023-05-13T23:54:53.999Z,7.17
2023-05-13T23:57:24.071Z,7.33
2023-05-13T23:59:53.810Z,7.70
